Time;durP1;ratioP1;P1;durP2;ratioP2;P2;SDS_P1;SDS_P2;PMS_P1;PMS_P2;Temp;Humidity;BMP_temperature;BMP_pressure;BME280_temperature;BME280_humidity;BME280_pressure;Samples;Min_cycle;Max_cycle;Signal;HPM_P1;HPM_P2
2022/02/23 00:00:36;;;;;;;12.40;3.03;;;9.80;1.00;;;;;;5017466;28;20055;-72
2022/02/23 00:03:02;;;;;;;15.45;3.63;;;9.70;1.00;;;;;;5017176;28;20057;-72
2022/02/23 00:05:28;;;;;;;16.25;3.08;;;9.80;1.00;;;;;;5017164;28;20437;-72
2022/02/23 00:07:53;;;;;;;16.55;3.53;;;9.80;1.00;;;;;;5017439;28;20053;-72
2022/02/23 00:10:19;;;;;;;17.80;3.45;;;9.80;1.00;;;;;;5017637;28;20092;-72
2022/02/23 00:12:45;;;;;;;18.92;3.55;;;9.80;1.00;;;;;;5017783;28;20048;-72
2022/02/23 00:15:11;;;;;;;19.92;4.00;;;9.80;1.00;;;;;;5017288;28;20038;-72
2022/02/23 00:17:37;;;;;;;19.50;3.88;;;9.70;1.00;;;;;;5017569;28;20384;-72
2022/02/23 00:20:05;;;;;;;12.20;3.03;;;9.60;1.00;;;;;;5018119;28;20038;-72
2022/02/23 00:22:34;;;;;;;17.30;3.90;;;9.50;1.00;;;;;;5017074;28;20486;-72
2022/02/23 00:25:01;;;;;;;17.65;4.25;;;9.50;1.00;;;;;;5017323;28;20030;-72
2022/02/23 00:27:27;;;;;;;19.17;3.60;;;9.50;1.00;;;;;;5016736;28;20046;-72
2022/02/23 00:29:56;;;;;;;18.58;3.55;;;9.40;1.00;;;;;;5017532;28;20088;-72
2022/02/23 00:32:22;;;;;;;14.18;3.15;;;9.30;1.00;;;;;;5017429;28;20131;-72
2022/02/23 00:34:48;;;;;;;16.55;3.38;;;9.30;1.00;;;;;;5017178;28;20103;-72
2022/02/23 00:37:15;;;;;;;22.13;4.35;;;9.30;1.00;;;;;;5017053;28;20038;-72
2022/02/23 00:39:42;;;;;;;15.68;3.70;;;9.20;1.00;;;;;;5017377;28;20469;-72
2022/02/23 00:42:08;;;;;;;22.20;3.83;;;9.10;1.00;;;;;;5016764;28;20049;-72
2022/02/23 00:44:35;;;;;;;20.63;3.97;;;9.00;1.00;;;;;;5017555;28;20038;-72
2022/02/23 00:47:01;;;;;;;23.42;4.05;;;8.90;1.00;;;;;;5016705;28;20492;-72
2022/02/23 00:49:27;;;;;;;17.15;3.22;;;8.80;1.00;;;;;;5016932;28;20041;-72
2022/02/23 00:51:54;;;;;;;23.77;4.53;;;8.80;1.00;;;;;;5016288;28;20038;-72
2022/02/23 00:54:20;;;;;;;18.02;3.88;;;8.60;1.00;;;;;;5016843;28;20080;-72
2022/02/23 00:56:47;;;;;;;19.98;3.83;;;8.60;1.00;;;;;;5016839;28;20061;-72
2022/02/23 00:59:13;;;;;;;20.58;4.25;;;8.50;1.00;;;;;;5016716;28;20033;-72
2022/02/23 01:01:39;;;;;;;11.93;3.00;;;8.40;1.00;;;;;;5016671;28;20072;-72
2022/02/23 01:04:06;;;;;;;13.27;2.72;;;8.30;1.00;;;;;;5016321;28;20169;-72
2022/02/23 01:06:32;;;;;;;16.25;3.20;;;8.20;1.00;;;;;;5015859;28;20578;-72
2022/02/23 01:08:58;;;;;;;14.77;2.70;;;8.30;1.00;;;;;;5015772;28;20049;-72
2022/02/23 01:11:24;;;;;;;17.02;3.10;;;8.30;1.00;;;;;;5016215;28;20045;-72
2022/02/23 01:13:50;;;;;;;17.33;3.63;;;8.20;1.00;;;;;;5016108;28;20046;-72
2022/02/23 01:16:18;;;;;;;16.67;3.65;;;8.30;1.00;;;;;;5016031;28;20492;-72
2022/02/23 01:18:44;;;;;;;12.77;2.35;;;8.30;1.00;;;;;;5016073;28;20038;-72
2022/02/23 01:21:10;;;;;;;17.05;2.97;;;8.30;1.00;;;;;;5016240;28;20151;-72
2022/02/23 01:23:37;;;;;;;14.73;2.58;;;8.20;1.00;;;;;;5015991;28;20040;-72
2022/02/23 01:26:04;;;;;;;14.15;3.05;;;8.30;1.00;;;;;;5015939;28;20046;-72
2022/02/23 01:28:30;;;;;;;15.43;2.55;;;8.30;1.00;;;;;;5015915;28;20034;-72
2022/02/23 01:30:57;;;;;;;16.85;3.47;;;8.30;1.00;;;;;;5015569;28;20070;-72
2022/02/23 01:33:22;;;;;;;13.60;2.72;;;8.30;1.00;;;;;;5015454;28;20377;-72
2022/02/23 01:35:48;;;;;;;14.52;3.33;;;8.20;1.00;;;;;;5015457;28;20046;-72
2022/02/23 01:38:14;;;;;;;14.65;2.58;;;8.20;1.00;;;;;;5015654;28;20033;-72
2022/02/23 01:40:41;;;;;;;13.68;2.67;;;8.20;1.00;;;;;;5015696;28;20088;-72
2022/02/23 01:43:07;;;;;;;15.43;3.30;;;8.10;1.00;;;;;;5015607;28;20069;-72
2022/02/23 01:45:33;;;;;;;15.07;2.60;;;8.00;1.00;;;;;;5015324;28;20057;-72
2022/02/23 01:47:59;;;;;;;19.45;3.90;;;8.00;1.00;;;;;;5015873;28;20049;-72
2022/02/23 01:50:25;;;;;;;14.38;2.63;;;8.00;1.00;;;;;;5015228;28;20404;-72
2022/02/23 01:52:51;;;;;;;13.57;2.92;;;8.00;1.00;;;;;;5015206;28;20042;-72
2022/02/23 01:55:17;;;;;;;18.92;3.08;;;8.00;1.00;;;;;;5015606;28;20056;-72
2022/02/23 01:57:43;;;;;;;14.98;3.15;;;7.90;1.00;;;;;;5015149;28;20038;-72
2022/02/23 02:00:12;;;;;;;15.30;3.63;;;8.00;1.00;;;;;;5015028;28;20100;-72
2022/02/23 02:02:38;;;;;;;15.25;3.13;;;8.10;1.00;;;;;;5030530;28;20396;-72
2022/02/23 02:05:05;;;;;;;15.73;3.25;;;8.20;1.00;;;;;;5015225;28;20033;-72
2022/02/23 02:07:31;;;;;;;14.52;2.83;;;8.30;1.00;;;;;;5014673;28;20555;-72
2022/02/23 02:09:57;;;;;;;17.70;2.67;;;8.30;1.00;;;;;;5014904;28;20156;-72
2022/02/23 02:12:24;;;;;;;11.80;3.50;;;8.30;1.00;;;;;;5014805;28;20679;-72
2022/02/23 02:14:51;;;;;;;16.25;3.03;;;8.40;1.00;;;;;;5015328;28;20033;-72
2022/02/23 02:17:17;;;;;;;16.98;2.83;;;8.30;1.00;;;;;;5014814;28;20034;-72
2022/02/23 02:19:43;;;;;;;13.43;3.85;;;8.30;1.00;;;;;;5014872;28;20044;-72
2022/02/23 02:22:10;;;;;;;22.83;3.15;;;8.20;1.00;;;;;;5014893;28;20439;-72
2022/02/23 02:24:38;;;;;;;15.35;3.78;;;8.10;1.00;;;;;;5014731;28;20046;-72
2022/02/23 02:27:07;;;;;;;15.52;2.80;;;8.10;1.00;;;;;;5014717;28;20092;-72
2022/02/23 02:29:34;;;;;;;13.32;2.95;;;8.10;1.00;;;;;;5014716;28;20037;-72
2022/02/23 02:32:01;;;;;;;14.77;3.00;;;8.10;1.00;;;;;;5014581;28;20068;-72
2022/02/23 02:34:27;;;;;;;12.05;2.92;;;8.10;1.00;;;;;;5015152;28;20041;-72
2022/02/23 02:36:54;;;;;;;39.13;22.40;;;8.20;1.00;;;;;;5014449;28;20183;-72
2022/02/23 02:39:21;;;;;;;15.07;4.68;;;8.10;1.00;;;;;;5015369;28;20042;-72
2022/02/23 02:41:47;;;;;;;44.25;26.60;;;8.10;1.00;;;;;;5014814;28;20041;-72
2022/02/23 02:44:13;;;;;;;27.55;16.45;;;8.10;1.00;;;;;;5014823;28;20042;-72
2022/02/23 02:46:40;;;;;;;10.40;3.67;;;8.10;1.00;;;;;;5014860;28;20556;-72
2022/02/23 02:49:06;;;;;;;11.13;3.33;;;8.30;1.00;;;;;;5014962;28;20069;-72
2022/02/23 02:51:32;;;;;;;13.23;2.95;;;8.40;1.00;;;;;;5014513;28;20501;-72
2022/02/23 02:53:58;;;;;;;12.38;2.25;;;8.60;1.00;;;;;;5014571;28;20044;-72
2022/02/23 02:56:24;;;;;;;10.48;2.13;;;8.80;1.00;;;;;;5014619;28;20484;-72
2022/02/23 02:58:53;;;;;;;13.20;2.60;;;8.90;1.00;;;;;;5014860;28;20042;-72
2022/02/23 03:01:23;;;;;;;16.20;2.75;;;8.90;1.00;;;;;;5014512;28;20072;-72
2022/02/23 03:03:50;;;;;;;10.95;2.65;;;8.90;1.00;;;;;;5014307;28;20072;-72
2022/02/23 03:06:17;;;;;;;12.10;2.33;;;9.10;1.00;;;;;;5013129;28;20401;-72
2022/02/23 03:08:44;;;;;;;9.98;2.58;;;9.00;1.00;;;;;;5014926;28;20062;-72
2022/02/23 03:11:10;;;;;;;7.88;2.15;;;9.00;1.00;;;;;;5014529;28;20072;-72
2022/02/23 03:13:36;;;;;;;9.73;2.67;;;9.10;1.00;;;;;;5014437;28;20074;-72
2022/02/23 03:16:02;;;;;;;15.27;2.55;;;9.30;1.00;;;;;;5014494;28;20136;-72
2022/02/23 03:18:28;;;;;;;13.93;3.05;;;9.30;1.00;;;;;;5015087;28;20049;-72
2022/02/23 03:20:54;;;;;;;10.30;2.65;;;9.20;1.00;;;;;;5014699;28;20372;-72
2022/02/23 03:23:20;;;;;;;10.20;2.17;;;9.20;1.00;;;;;;5014834;28;20404;-72
2022/02/23 03:25:46;;;;;;;12.07;2.85;;;9.00;1.00;;;;;;5014658;28;20141;-72
2022/02/23 03:28:12;;;;;;;11.45;2.67;;;8.80;1.00;;;;;;5015258;28;20041;-72
2022/02/23 03:30:40;;;;;;;12.77;2.55;;;9.10;1.00;;;;;;5014608;28;20026;-72
2022/02/23 03:33:09;;;;;;;10.82;2.00;;;9.10;1.00;;;;;;5018227;28;20050;-72
2022/02/23 03:35:39;;;;;;;14.23;2.85;;;9.00;1.00;;;;;;5017924;28;20034;-72
2022/02/23 03:38:05;;;;;;;8.57;2.33;;;8.90;1.00;;;;;;5018225;28;20476;-72
2022/02/23 03:40:32;;;;;;;12.65;2.20;;;8.80;1.00;;;;;;5017944;28;20046;-72
2022/02/23 03:42:58;;;;;;;9.27;1.75;;;8.70;1.00;;;;;;5018186;28;20057;-72
2022/02/23 03:45:24;;;;;;;12.77;2.20;;;8.80;1.00;;;;;;5018123;28;20072;-72
2022/02/23 03:47:50;;;;;;;13.68;2.72;;;8.70;1.00;;;;;;5018169;28;20132;-72
2022/02/23 03:50:16;;;;;;;13.98;2.20;;;8.60;1.00;;;;;;5017739;28;20042;-72
2022/02/23 03:52:42;;;;;;;14.35;2.47;;;8.70;1.00;;;;;;5017428;28;20069;-71
2022/02/23 03:55:09;;;;;;;8.20;2.45;;;8.50;1.00;;;;;;5018210;28;20049;-72
2022/02/23 03:57:36;;;;;;;10.90;2.40;;;8.40;1.00;;;;;;5017808;28;20112;-71
2022/02/23 04:00:04;;;;;;;22.90;12.52;;;8.20;1.00;;;;;;5017837;28;20124;-71
2022/02/23 04:02:30;;;;;;;13.38;3.38;;;8.30;1.00;;;;;;5018241;28;20045;-72
2022/02/23 04:04:56;;;;;;;10.57;2.42;;;8.10;1.00;;;;;;5018032;28;20046;-72
2022/02/23 04:07:22;;;;;;;10.93;2.28;;;7.90;1.00;;;;;;5018133;28;20120;-72
2022/02/23 04:09:48;;;;;;;9.43;2.20;;;7.60;1.00;;;;;;5017379;28;20030;-72
2022/02/23 04:12:17;;;;;;;9.75;1.95;;;7.60;1.00;;;;;;5017021;28;20046;-72
2022/02/23 04:14:43;;;;;;;13.57;2.10;;;7.40;1.00;;;;;;5017560;28;20514;-72
2022/02/23 04:17:09;;;;;;;10.48;2.13;;;7.20;1.00;;;;;;5017043;28;20041;-71
2022/02/23 04:19:35;;;;;;;11.63;2.35;;;7.10;1.00;;;;;;5017518;28;20128;-72
2022/02/23 04:22:02;;;;;;;9.27;2.05;;;7.30;1.00;;;;;;5016734;28;20048;-72
2022/02/23 04:24:28;;;;;;;12.52;2.53;;;7.10;1.00;;;;;;5010542;28;20072;-72
2022/02/23 04:26:54;;;;;;;10.48;2.30;;;7.10;1.00;;;;;;5002535;28;20042;-72
2022/02/23 04:29:21;;;;;;;13.75;3.05;;;7.00;1.00;;;;;;5016368;28;20091;-72
2022/02/23 04:31:47;;;;;;;12.50;2.85;;;7.00;1.00;;;;;;5017081;28;20060;-72
2022/02/23 04:34:13;;;;;;;9.10;2.13;;;6.90;1.00;;;;;;5013125;28;20041;-72
2022/02/23 04:36:39;;;;;;;10.48;1.92;;;6.80;1.00;;;;;;5013924;28;20508;-72
2022/02/23 04:39:06;;;;;;;9.48;1.85;;;6.90;1.00;;;;;;5014724;28;20064;-72
2022/02/23 04:41:31;;;;;;;7.75;2.22;;;6.80;1.00;;;;;;5015548;28;20053;-72
2022/02/23 04:43:57;;;;;;;9.10;2.10;;;7.00;1.00;;;;;;5016155;28;20033;-72
2022/02/23 04:46:23;;;;;;;14.55;2.30;;;7.00;1.00;;;;;;5016944;28;20116;-72
2022/02/23 04:48:50;;;;;;;7.78;2.25;;;7.00;1.00;;;;;;5005558;28;20374;-72
2022/02/23 04:51:17;;;;;;;8.95;1.73;;;6.90;1.00;;;;;;5014721;28;20567;-73
2022/02/23 04:53:44;;;;;;;8.02;1.90;;;7.00;1.00;;;;;;5015660;28;20042;-73
2022/02/23 04:56:10;;;;;;;7.22;1.73;;;6.80;1.00;;;;;;5015500;28;20048;-73
2022/02/23 04:58:36;;;;;;;5.90;1.98;;;6.90;1.00;;;;;;5016557;28;20113;-71
2022/02/23 05:01:04;;;;;;;7.25;1.90;;;7.10;1.00;;;;;;5015725;28;20381;-71
2022/02/23 05:03:31;;;;;;;8.02;2.22;;;7.10;1.00;;;;;;5015688;28;20176;-73
2022/02/23 05:05:59;;;;;;;7.15;1.70;;;7.30;1.00;;;;;;5015753;28;20037;-73
2022/02/23 05:08:28;;;;;;;9.73;2.25;;;7.40;1.00;;;;;;5016082;28;20061;-73
2022/02/23 05:10:57;;;;;;;12.10;2.15;;;7.10;1.00;;;;;;5016170;28;20030;-73
2022/02/23 05:13:26;;;;;;;7.65;1.70;;;7.10;1.00;;;;;;5016312;28;20412;-73
2022/02/23 05:16:06;;;;;;;7.43;1.50;;;7.00;1.00;;;;;;5015805;28;20045;-73
2022/02/23 05:18:32;;;;;;;9.35;1.70;;;6.70;1.00;;;;;;5014553;28;20139;-73
2022/02/23 05:21:00;;;;;;;3.60;1.23;;;6.60;1.00;;;;;;5015952;28;20033;-73
2022/02/23 05:23:27;;;;;;;9.82;1.73;;;6.50;1.00;;;;;;4998075;28;20132;-73
2022/02/23 05:25:54;;;;;;;8.00;1.90;;;6.40;1.00;;;;;;5015716;28;20357;-73
2022/02/23 05:28:21;;;;;;;10.93;1.80;;;6.40;1.00;;;;;;5015356;28;20405;-73
2022/02/23 05:30:47;;;;;;;7.93;1.58;;;6.40;1.00;;;;;;5016089;28;20034;-73
2022/02/23 05:33:13;;;;;;;9.32;2.28;;;6.30;1.00;;;;;;5015759;28;20068;-73
2022/02/23 05:35:40;;;;;;;6.47;2.35;;;6.30;1.00;;;;;;5015811;28;20504;-73
2022/02/23 05:38:06;;;;;;;6.35;1.67;;;6.20;1.00;;;;;;5016399;28;20038;-73
2022/02/23 05:40:33;;;;;;;9.10;2.50;;;6.20;1.00;;;;;;5016032;28;20038;-73
2022/02/23 05:42:59;;;;;;;8.30;2.33;;;6.20;1.00;;;;;;5015563;28;20512;-73
2022/02/23 05:45:26;;;;;;;6.07;2.13;;;6.10;1.00;;;;;;5015549;28;20034;-73
2022/02/23 05:47:52;;;;;;;7.28;1.90;;;6.10;2.90;;;;;;5015273;28;20103;-73
2022/02/23 05:50:19;;;;;;;12.10;2.45;;;6.00;9.30;;;;;;5015568;28;20037;-73
2022/02/23 05:52:45;;;;;;;9.75;2.17;;;6.00;23.70;;;;;;5014973;28;20041;-73
2022/02/23 05:55:11;;;;;;;11.38;3.15;;;6.00;16.70;;;;;;5014676;28;20060;-73
2022/02/23 05:57:37;;;;;;;12.65;3.03;;;6.00;29.10;;;;;;5015448;28;20042;-73
2022/02/23 06:00:04;;;;;;;14.88;3.15;;;6.10;15.70;;;;;;5015023;28;20041;-73
2022/02/23 06:02:30;;;;;;;14.93;2.53;;;6.10;9.70;;;;;;5015295;28;20180;-73
2022/02/23 06:04:56;;;;;;;15.95;2.80;;;6.00;15.60;;;;;;5015379;28;20065;-72
2022/02/23 06:07:22;;;;;;;8.65;2.42;;;5.90;17.90;;;;;;5014342;28;20148;-73
2022/02/23 06:09:48;;;;;;;17.85;3.05;;;5.80;20.20;;;;;;5015126;28;20044;-73
2022/02/23 06:12:14;;;;;;;11.90;3.13;;;5.70;29.80;;;;;;5014902;28;20042;-71
2022/02/23 06:14:40;;;;;;;14.48;4.70;;;5.70;32.70;;;;;;5015230;28;20132;-71
2022/02/23 06:17:05;;;;;;;16.30;4.93;;;5.60;42.40;;;;;;5015135;28;20531;-72
2022/02/23 06:19:31;;;;;;;13.13;4.13;;;5.50;47.30;;;;;;5014993;28;20033;-73
2022/02/23 06:21:57;;;;;;;7.78;3.35;;;5.50;43.50;;;;;;5014644;28;20084;-73
2022/02/23 06:24:23;;;;;;;12.10;4.45;;;5.40;49.40;;;;;;5015304;28;20076;-74
2022/02/23 06:26:49;;;;;;;9.80;2.50;;;5.40;58.40;;;;;;5015139;28;20109;-74
2022/02/23 06:29:15;;;;;;;9.73;2.63;;;5.40;59.00;;;;;;5014701;28;20038;-74
2022/02/23 06:31:44;;;;;;;8.70;2.92;;;5.50;48.40;;;;;;5014915;28;20037;-74
2022/02/23 06:34:10;;;;;;;12.20;3.22;;;5.50;57.30;;;;;;5014747;28;20038;-74
2022/02/23 06:36:36;;;;;;;15.10;3.83;;;5.40;58.60;;;;;;5014787;28;20069;-74
2022/02/23 06:39:03;;;;;;;9.73;3.17;;;5.40;78.40;;;;;;5014570;28;20046;-74
2022/02/23 06:41:28;;;;;;;14.40;4.10;;;5.30;71.10;;;;;;5014599;28;20069;-74
2022/02/23 06:43:54;;;;;;;12.88;4.38;;;5.30;71.50;;;;;;5014782;28;20073;-74
2022/02/23 06:46:21;;;;;;;8.55;3.30;;;5.20;70.00;;;;;;5014461;28;20132;-74
2022/02/23 06:48:48;;;;;;;10.30;3.35;;;5.20;75.50;;;;;;5014743;28;20038;-74
2022/02/23 06:51:18;;;;;;;14.25;3.47;;;5.10;82.10;;;;;;5014228;28;20489;-74
2022/02/23 06:53:46;;;;;;;18.15;3.28;;;5.10;83.90;;;;;;5014292;28;20120;-74
2022/02/23 06:56:13;;;;;;;12.68;3.00;;;5.10;69.40;;;;;;5014652;28;20045;-73
2022/02/23 06:58:50;;;;;;;13.18;2.95;;;5.10;80.00;;;;;;5015246;28;20029;-72
2022/02/23 07:01:19;;;;;;;12.05;3.35;;;5.10;90.70;;;;;;5014651;28;20049;-72
2022/02/23 07:03:46;;;;;;;12.13;3.15;;;5.10;85.50;;;;;;5014463;28;20045;-72
2022/02/23 07:06:13;;;;;;;14.27;3.17;;;5.00;84.50;;;;;;5017135;28;20049;-72
2022/02/23 07:08:46;;;;;;;12.05;3.70;;;5.00;84.90;;;;;;5018755;28;20054;-72
2022/02/23 07:11:12;;;;;;;10.23;2.92;;;5.10;78.80;;;;;;5019101;28;20036;-72
2022/02/23 07:13:38;;;;;;;12.50;3.15;;;5.10;74.00;;;;;;5018711;28;20041;-72
2022/02/23 07:16:04;;;;;;;10.52;3.13;;;5.00;71.00;;;;;;5018693;28;20095;-72
2022/02/23 07:18:30;;;;;;;10.85;2.72;;;5.00;92.10;;;;;;5018485;28;20100;-72
2022/02/23 07:20:56;;;;;;;22.17;6.35;;;5.20;80.20;;;;;;5018487;28;20436;-72
2022/02/23 07:23:22;;;;;;;16.58;3.88;;;5.10;84.40;;;;;;5018076;28;20141;-72
2022/02/23 07:25:54;;;;;;;10.32;3.30;;;5.20;82.10;;;;;;5018536;28;20037;-72
2022/02/23 07:28:20;;;;;;;18.92;3.92;;;5.20;68.20;;;;;;5018709;28;20129;-72
2022/02/23 07:30:46;;;;;;;5.82;2.63;;;5.30;72.00;;;;;;5018737;28;20038;-72
2022/02/23 07:33:15;;;;;;;14.32;3.20;;;5.30;71.40;;;;;;5018228;28;20140;-72
2022/02/23 07:35:41;;;;;;;11.75;3.45;;;5.40;67.00;;;;;;5018278;28;20034;-72
2022/02/23 07:38:08;;;;;;;10.55;2.90;;;5.50;66.30;;;;;;5018295;28;20038;-72
2022/02/23 07:40:34;;;;;;;12.05;3.45;;;5.60;63.70;;;;;;5017852;28;20030;-72
2022/02/23 07:43:00;;;;;;;12.93;2.95;;;5.70;61.50;;;;;;5017953;28;20524;-72
2022/02/23 07:45:30;;;;;;;12.75;3.55;;;5.90;57.00;;;;;;5018127;28;20114;-72
2022/02/23 07:47:56;;;;;;;21.88;4.10;;;6.00;44.10;;;;;;5018453;28;20125;-72
2022/02/23 07:50:22;;;;;;;19.90;4.53;;;6.10;42.60;;;;;;5018035;28;20572;-72
2022/02/23 07:52:50;;;;;;;18.25;4.35;;;6.10;43.20;;;;;;5017174;28;20072;-72
2022/02/23 07:55:17;;;;;;;16.40;4.32;;;6.10;42.80;;;;;;5017642;28;20049;-72
2022/02/23 07:57:42;;;;;;;13.00;3.63;;;6.20;39.50;;;;;;5018261;28;20049;-72
2022/02/23 08:00:09;;;;;;;10.98;4.13;;;6.40;28.90;;;;;;5017655;28;20042;-72
2022/02/23 08:02:36;;;;;;;13.98;3.80;;;6.40;25.60;;;;;;5017287;28;20041;-72
2022/02/23 08:05:03;;;;;;;14.60;3.53;;;6.40;30.60;;;;;;5017216;28;20046;-72
2022/02/23 08:07:29;;;;;;;12.80;2.88;;;6.50;31.70;;;;;;5017249;28;20512;-72
2022/02/23 08:09:55;;;;;;;15.93;3.20;;;6.70;16.80;;;;;;5017695;28;20030;-72
2022/02/23 08:12:21;;;;;;;11.50;3.00;;;6.80;15.00;;;;;;5017298;28;20038;-72
2022/02/23 08:14:47;;;;;;;10.57;2.70;;;6.80;15.40;;;;;;5017322;28;20418;-72
2022/02/23 08:19:58;;;;;;;9.32;2.40;;;6.90;17.20;;;;;;5017278;28;20117;-72
2022/02/23 08:22:28;;;;;;;14.10;2.72;;;7.10;9.50;;;;;;5017285;28;20034;-72
2022/02/23 08:24:55;;;;;;;12.38;2.78;;;7.10;6.60;;;;;;5017458;28;20141;-72
2022/02/23 08:27:23;;;;;;;13.13;3.22;;;7.10;7.70;;;;;;5017469;28;20074;-72
2022/02/23 08:29:49;;;;;;;13.75;3.38;;;7.20;9.20;;;;;;5017746;28;20038;-72
2022/02/23 08:32:18;;;;;;;18.23;4.68;;;7.30;10.90;;;;;;5017251;28;20484;-72
2022/02/23 08:34:47;;;;;;;11.07;4.10;;;7.30;13.30;;;;;;5017188;28;20038;-72
2022/02/23 08:37:14;;;;;;;15.30;4.25;;;7.40;7.10;;;;;;5017376;28;20077;-72
2022/02/23 08:39:41;;;;;;;16.10;3.60;;;7.50;2.50;;;;;;5017446;28;20037;-72
2022/02/23 08:42:10;;;;;;;11.85;3.65;;;7.50;1.00;;;;;;5016247;28;20075;-71
2022/02/23 08:44:36;;;;;;;13.50;3.25;;;7.70;1.00;;;;;;5016704;28;20034;-72
2022/02/23 08:47:04;;;;;;;9.27;3.58;;;7.90;1.00;;;;;;5016732;28;20046;-72
2022/02/23 08:49:30;;;;;;;8.88;2.90;;;8.00;1.00;;;;;;5017042;28;20558;-72
2022/02/23 08:51:56;;;;;;;6.18;2.40;;;8.10;1.00;;;;;;5016671;28;20042;-72
2022/02/23 08:54:23;;;;;;;8.98;2.13;;;8.20;1.00;;;;;;5016719;28;20576;-72
2022/02/23 08:56:49;;;;;;;9.50;2.10;;;8.40;1.00;;;;;;5016245;28;20069;-72
2022/02/23 08:59:15;;;;;;;9.63;2.72;;;8.60;1.00;;;;;;5015926;28;20073;-72
2022/02/23 09:01:42;;;;;;;7.25;2.17;;;8.70;1.00;;;;;;5016241;28;20197;-72
2022/02/23 09:04:08;;;;;;;7.65;1.77;;;8.60;1.00;;;;;;5016662;28;20065;-72
2022/02/23 09:06:36;;;;;;;12.32;2.92;;;8.70;1.00;;;;;;5015710;28;20369;-72
2022/02/23 09:09:07;;;;;;;6.80;1.90;;;8.80;1.00;;;;;;5016466;28;20111;-72
2022/02/23 09:11:32;;;;;;;;;;;8.90;1.00;;;;;;5016683;28;20050;-72
2022/02/23 09:13:58;;;;;;;7.05;1.90;;;8.90;1.00;;;;;;5016114;28;20379;-72
2022/02/23 09:16:25;;;;;;;12.57;2.53;;;9.00;1.00;;;;;;5015851;28;20531;-72
2022/02/23 09:18:51;;;;;;;11.70;3.08;;;9.10;1.00;;;;;;5016133;28;20034;-72
2022/02/23 09:21:17;;;;;;;8.05;2.47;;;9.10;1.00;;;;;;5015908;28;20046;-72
2022/02/23 09:23:44;;;;;;;9.10;2.53;;;9.20;1.00;;;;;;5014697;28;20034;-72
2022/02/23 09:26:10;;;;;;;6.22;1.70;;;9.10;1.00;;;;;;5015848;28;20116;-72
2022/02/23 09:28:40;;;;;;;10.63;2.35;;;9.10;1.00;;;;;;5016220;28;20153;-72
2022/02/23 09:31:07;;;;;;;12.45;3.05;;;9.10;1.00;;;;;;5015809;28;20046;-72
2022/02/23 09:33:34;;;;;;;11.13;2.88;;;9.20;1.00;;;;;;5015658;28;20091;-72
2022/02/23 09:36:02;;;;;;;14.38;2.30;;;9.30;1.00;;;;;;5015651;28;20129;-72
2022/02/23 09:38:30;;;;;;;6.78;1.98;;;9.30;1.00;;;;;;5015503;28;20030;-72
2022/02/23 09:40:58;;;;;;;10.40;2.38;;;9.30;1.00;;;;;;5015563;28;20052;-72
2022/02/23 09:43:24;;;;;;;9.98;1.88;;;9.40;1.00;;;;;;5015614;28;20041;-72
2022/02/23 09:45:53;;;;;;;13.40;2.80;;;9.50;1.00;;;;;;5015356;28;20042;-72
2022/02/23 09:48:20;;;;;;;8.52;2.92;;;9.60;1.00;;;;;;5015906;28;20045;-72
2022/02/23 09:50:47;;;;;;;6.20;2.03;;;9.80;1.00;;;;;;5015463;28;20034;-72
2022/02/23 09:53:15;;;;;;;11.13;2.28;;;9.90;1.00;;;;;;5015276;28;20046;-72
2022/02/23 09:55:41;;;;;;;8.00;2.53;;;9.90;1.00;;;;;;5015390;28;20037;-72
2022/02/23 09:58:07;;;;;;;11.00;2.30;;;10.00;1.00;;;;;;5016060;28;20037;-72
2022/02/23 10:00:33;;;;;;;8.63;2.25;;;10.10;1.00;;;;;;5015319;28;20049;-72
2022/02/23 10:02:59;;;;;;;8.35;1.95;;;10.00;1.00;;;;;;5015221;28;20048;-72
2022/02/23 10:05:26;;;;;;;14.38;2.83;;;10.00;1.00;;;;;;5015412;28;20045;-72
2022/02/23 10:08:06;;;;;;;4.38;1.70;;;10.00;1.00;;;;;;5015297;28;20064;-72
2022/02/23 10:10:38;;;;;;;9.50;2.27;;;10.00;1.00;;;;;;5015346;28;20038;-72
2022/02/23 10:13:05;;;;;;;9.20;2.63;;;10.00;1.00;;;;;;5015332;28;20485;-72
2022/02/23 10:15:37;;;;;;;10.77;3.08;;;10.10;1.00;;;;;;5015049;28;20542;-72
2022/02/23 10:18:15;;;;;;;11.75;2.63;;;10.10;1.00;;;;;;5015352;28;20128;-72
2022/02/23 10:20:42;;;;;;;9.43;2.50;;;10.20;1.00;;;;;;5015666;28;20034;-72
2022/02/23 10:23:18;;;;;;;11.93;3.03;;;10.40;1.00;;;;;;5015163;28;20038;-72
2022/02/23 10:26:12;;;;;;;8.75;2.13;;;10.40;1.00;;;;;;5014861;28;20084;-72
2022/02/23 10:28:39;;;;;;;6.68;2.35;;;10.40;1.00;;;;;;5015134;28;20084;-72
2022/02/23 10:31:09;;;;;;;8.82;2.58;;;10.30;1.00;;;;;;5015047;28;20093;-72
2022/02/23 10:33:38;;;;;;;7.20;2.63;;;10.30;1.00;;;;;;5014868;28;20073;-72
2022/02/23 10:36:06;;;;;;;7.47;2.30;;;10.50;1.00;;;;;;5014602;28;20053;-72
2022/02/23 10:38:37;;;;;;;6.13;2.53;;;10.50;1.00;;;;;;5015754;28;20524;-72
2022/02/23 10:41:05;;;;;;;9.48;2.42;;;10.50;1.00;;;;;;5014470;28;20083;-72
2022/02/23 10:43:36;;;;;;;13.13;3.22;;;10.70;1.00;;;;;;5015371;28;20046;-72
2022/02/23 10:46:05;;;;;;;10.68;3.60;;;10.70;1.00;;;;;;5015207;28;20485;-72
2022/02/23 10:48:34;;;;;;;8.15;1.90;;;10.60;1.00;;;;;;5015085;28;20053;-72
2022/02/23 10:51:01;;;;;;;11.88;2.53;;;10.80;1.00;;;;;;5014822;28;20041;-72
2022/02/23 10:53:29;;;;;;;7.05;2.28;;;10.80;1.00;;;;;;5014482;28;20048;-71
2022/02/23 10:55:56;;;;;;;11.05;2.30;;;10.80;1.00;;;;;;5014954;28;20041;-71
2022/02/23 10:58:25;;;;;;;7.93;2.13;;;10.80;1.00;;;;;;5015547;28;20041;-71
2022/02/23 11:00:55;;;;;;;5.75;2.03;;;10.80;1.00;;;;;;5014582;28;20041;-71
2022/02/23 11:03:21;;;;;;;8.82;2.33;;;10.90;1.00;;;;;;5014863;28;20046;-72
2022/02/23 11:05:49;;;;;;;6.57;2.25;;;11.00;1.00;;;;;;5014543;28;20547;-72
2022/02/23 11:08:15;;;;;;;6.25;1.92;;;11.10;1.00;;;;;;5013060;28;20137;-71
2022/02/23 11:10:46;;;;;;;9.82;2.42;;;11.10;1.00;;;;;;5010307;28;20092;-71
2022/02/23 11:13:15;;;;;;;5.80;2.03;;;11.00;1.00;;;;;;5008343;28;20053;-71
2022/02/23 11:15:49;;;;;;;13.57;2.38;;;11.10;1.00;;;;;;5012287;28;20052;-71
2022/02/23 11:18:16;;;;;;;10.50;2.28;;;11.20;1.00;;;;;;5010464;28;20046;-71
2022/02/23 11:20:44;;;;;;;6.43;1.98;;;11.30;1.00;;;;;;5012564;28;20049;-71
2022/02/23 11:23:19;;;;;;;9.90;2.08;;;11.30;1.00;;;;;;5009574;28;20050;-71
2022/02/23 11:25:48;;;;;;;8.50;2.13;;;11.40;1.00;;;;;;5012467;28;20760;-71
2022/02/23 11:28:20;;;;;;;7.40;2.15;;;11.40;1.00;;;;;;5012486;28;20063;-71
2022/02/23 11:30:48;;;;;;;5.72;1.70;;;11.20;1.00;;;;;;5011653;28;20457;-71
2022/02/23 11:33:14;;;;;;;3.70;1.17;;;11.40;1.00;;;;;;4995199;28;20119;-71
2022/02/23 11:35:49;;;;;;;5.90;2.20;;;11.50;1.00;;;;;;5012732;28;20038;-72
2022/02/23 11:38:20;;;;;;;3.10;1.25;;;11.40;1.00;;;;;;5009935;28;20041;-71
2022/02/23 11:40:48;;;;;;;1.83;1.08;;;11.40;1.00;;;;;;5013098;28;20030;-71
2022/02/23 11:43:29;;;;;;;4.40;1.08;;;11.30;1.00;;;;;;5013060;28;20049;-71
2022/02/23 11:45:59;;;;;;;3.42;1.13;;;11.30;1.00;;;;;;5013512;28;20064;-71
2022/02/23 11:48:25;;;;;;;5.27;1.37;;;11.40;1.00;;;;;;5013425;28;20041;-70
2022/02/23 11:51:04;;;;;;;5.28;1.50;;;11.50;1.00;;;;;;5013098;28;20105;-71
2022/02/23 11:53:39;;;;;;;2.83;1.00;;;11.70;1.00;;;;;;5013884;28;20034;-70
2022/02/23 11:56:15;;;;;;;4.85;1.40;;;11.70;1.00;;;;;;5016690;28;20496;-71
2022/02/23 11:58:47;;;;;;;2.78;1.02;;;11.70;1.00;;;;;;5016534;28;20033;-72
2022/02/23 12:01:13;;;;;;;4.97;1.77;;;11.70;1.00;;;;;;5014602;28;20064;-72
2022/02/23 12:03:42;;;;;;;5.57;1.80;;;11.60;1.00;;;;;;5016584;28;20069;-71
2022/02/23 12:06:09;;;;;;;2.25;1.23;;;11.70;1.00;;;;;;5016170;28;20042;-71
2022/02/23 12:08:47;;;;;;;4.35;1.30;;;11.70;1.00;;;;;;5017034;28;20085;-71
2022/02/23 12:11:16;;;;;;;5.65;1.02;;;11.80;1.00;;;;;;5016442;28;20101;-72
2022/02/23 12:13:55;;;;;;;3.95;0.95;;;11.80;1.00;;;;;;5016521;28;20088;-72
2022/02/23 12:16:21;;;;;;;1.98;0.75;;;12.10;1.00;;;;;;5017142;28;20140;-72
2022/02/23 12:18:52;;;;;;;4.20;1.05;;;12.00;1.00;;;;;;5017216;28;20046;-72
2022/02/23 12:21:18;;;;;;;2.45;1.00;;;12.40;1.00;;;;;;5017259;28;20034;-72
2022/02/23 12:23:48;;;;;;;3.70;1.30;;;12.70;1.00;;;;;;5017263;28;20051;-72
2022/02/23 12:26:17;;;;;;;6.57;1.42;;;12.70;1.00;;;;;;5017048;28;20030;-72
2022/02/23 12:28:47;;;;;;;5.90;1.27;;;12.60;1.00;;;;;;5017301;28;20076;-72
2022/02/23 12:31:25;;;;;;;3.72;1.67;;;12.80;1.00;;;;;;5017380;28;20050;-72
2022/02/23 12:33:57;;;;;;;4.45;1.20;;;12.70;1.00;;;;;;5017733;28;20052;-72
2022/02/23 12:36:26;;;;;;;3.45;1.00;;;12.60;1.00;;;;;;5016533;28;20427;-72
2022/02/23 12:38:52;;;;;;;5.28;1.10;;;12.60;1.00;;;;;;5016897;28;20038;-72
2022/02/23 12:41:24;;;;;;;3.78;1.17;;;12.60;1.00;;;;;;5017117;28;20065;-72
2022/02/23 12:44:10;;;;;;;3.97;0.95;;;12.60;1.00;;;;;;5017094;28;20088;-72
2022/02/23 12:46:57;;;;;;;3.45;1.30;;;12.70;1.00;;;;;;5016429;28;20030;-72
2022/02/23 12:49:24;;;;;;;2.78;1.20;;;12.60;1.00;;;;;;5017024;28;20061;-72
2022/02/23 12:51:51;;;;;;;3.97;1.27;;;12.50;1.00;;;;;;5016462;28;20117;-72
2022/02/23 12:54:23;;;;;;;3.63;1.00;;;12.50;1.00;;;;;;5016552;28;20132;-72
2022/02/23 12:56:54;;;;;;;2.95;0.90;;;12.80;1.00;;;;;;5016371;28;20045;-72
2022/02/23 12:59:23;;;;;;;4.55;1.13;;;12.90;1.00;;;;;;5016597;28;20038;-72
2022/02/23 13:01:56;;;;;;;4.65;1.17;;;12.90;1.00;;;;;;5016704;28;20042;-71